sensor_id;sensor_type;location;lat;lon;timestamp;P1;durP1;ratioP1;P2;durP2;ratioP2
7110;SDS011;3597;42.650;23.386;2022-09-25T00:01:31;2.23;;;2.20;;
7110;SDS011;3597;42.650;23.386;2022-09-25T00:03:56;1.70;;;1.70;;
7110;SDS011;3597;42.650;23.386;2022-09-25T00:06:22;1.97;;;1.97;;
7110;SDS011;3597;42.650;23.386;2022-09-25T00:08:49;1.90;;;1.90;;
7110;SDS011;3597;42.650;23.386;2022-09-25T00:11:16;1.60;;;1.60;;
7110;SDS011;3597;42.650;23.386;2022-09-25T00:13:45;1.90;;;1.90;;
7110;SDS011;3597;42.650;23.386;2022-09-25T00:16:12;1.60;;;1.60;;
7110;SDS011;3597;42.650;23.386;2022-09-25T00:18:39;1.60;;;1.60;;
7110;SDS011;3597;42.650;23.386;2022-09-25T00:21:23;1.70;;;1.70;;
7110;SDS011;3597;42.650;23.386;2022-09-25T00:23:53;1.60;;;1.60;;
7110;SDS011;3597;42.650;23.386;2022-09-25T00:26:19;1.50;;;1.50;;
7110;SDS011;3597;42.650;23.386;2022-09-25T00:28:44;1.80;;;1.80;;
7110;SDS011;3597;42.650;23.386;2022-09-25T00:31:09;1.60;;;1.60;;
7110;SDS011;3597;42.650;23.386;2022-09-25T00:33:35;1.50;;;1.50;;
7110;SDS011;3597;42.650;23.386;2022-09-25T00:36:05;1.30;;;1.30;;
7110;SDS011;3597;42.650;23.386;2022-09-25T00:38:32;1.93;;;1.90;;
7110;SDS011;3597;42.650;23.386;2022-09-25T00:40:59;1.50;;;1.50;;
7110;SDS011;3597;42.650;23.386;2022-09-25T00:43:59;1.50;;;1.50;;
7110;SDS011;3597;42.650;23.386;2022-09-25T00:51:25;1.40;;;1.40;;
7110;SDS011;3597;42.650;23.386;2022-09-25T00:53:54;1.47;;;1.47;;
7110;SDS011;3597;42.650;23.386;2022-09-25T00:56:22;1.43;;;1.43;;
7110;SDS011;3597;42.650;23.386;2022-09-25T00:58:48;1.70;;;1.70;;
7110;SDS011;3597;42.650;23.386;2022-09-25T01:01:13;1.50;;;1.50;;
7110;SDS011;3597;42.650;23.386;2022-09-25T01:03:39;1.20;;;1.20;;
7110;SDS011;3597;42.650;23.386;2022-09-25T01:06:05;1.50;;;1.50;;
7110;SDS011;3597;42.650;23.386;2022-09-25T01:08:31;1.27;;;1.27;;
7110;SDS011;3597;42.650;23.386;2022-09-25T01:10:57;1.63;;;1.63;;
7110;SDS011;3597;42.650;23.386;2022-09-25T01:13:22;1.60;;;1.60;;
7110;SDS011;3597;42.650;23.386;2022-09-25T01:16:03;1.33;;;1.33;;
7110;SDS011;3597;42.650;23.386;2022-09-25T01:30:23;1.47;;;1.47;;
7110;SDS011;3597;42.650;23.386;2022-09-25T01:41:17;1.77;;;1.77;;
7110;SDS011;3597;42.650;23.386;2022-09-25T01:44:06;1.57;;;1.57;;
7110;SDS011;3597;42.650;23.386;2022-09-25T01:46:39;2.10;;;1.97;;
7110;SDS011;3597;42.650;23.386;2022-09-25T01:49:25;1.67;;;1.67;;
7110;SDS011;3597;42.650;23.386;2022-09-25T01:51:53;1.47;;;1.47;;
7110;SDS011;3597;42.650;23.386;2022-09-25T01:54:21;1.70;;;1.70;;
7110;SDS011;3597;42.650;23.386;2022-09-25T01:57:07;1.70;;;1.70;;
7110;SDS011;3597;42.650;23.386;2022-09-25T02:02:21;1.60;;;1.60;;
7110;SDS011;3597;42.650;23.386;2022-09-25T02:07:18;1.80;;;1.80;;
7110;SDS011;3597;42.650;23.386;2022-09-25T02:09:50;2.40;;;2.40;;
7110;SDS011;3597;42.650;23.386;2022-09-25T02:12:18;1.53;;;1.53;;
7110;SDS011;3597;42.650;23.386;2022-09-25T02:14:55;1.70;;;1.70;;
7110;SDS011;3597;42.650;23.386;2022-09-25T02:17:28;1.80;;;1.80;;
7110;SDS011;3597;42.650;23.386;2022-09-25T02:20:15;1.70;;;1.70;;
7110;SDS011;3597;42.650;23.386;2022-09-25T02:23:05;1.83;;;1.83;;
7110;SDS011;3597;42.650;23.386;2022-09-25T02:25:42;2.00;;;2.00;;
7110;SDS011;3597;42.650;23.386;2022-09-25T02:28:09;1.77;;;1.77;;
7110;SDS011;3597;42.650;23.386;2022-09-25T02:30:34;1.60;;;1.60;;
7110;SDS011;3597;42.650;23.386;2022-09-25T02:33:00;1.53;;;1.53;;
7110;SDS011;3597;42.650;23.386;2022-09-25T02:35:25;1.80;;;1.80;;
7110;SDS011;3597;42.650;23.386;2022-09-25T02:37:51;1.60;;;1.60;;
7110;SDS011;3597;42.650;23.386;2022-09-25T02:40:18;1.20;;;1.20;;
7110;SDS011;3597;42.650;23.386;2022-09-25T02:42:48;1.70;;;1.70;;
7110;SDS011;3597;42.650;23.386;2022-09-25T02:48:42;1.57;;;1.57;;
7110;SDS011;3597;42.650;23.386;2022-09-25T02:59:03;1.27;;;1.27;;
7110;SDS011;3597;42.650;23.386;2022-09-25T03:01:36;1.40;;;1.40;;
7110;SDS011;3597;42.650;23.386;2022-09-25T03:04:04;1.43;;;1.43;;
7110;SDS011;3597;42.650;23.386;2022-09-25T03:06:29;1.30;;;1.30;;
7110;SDS011;3597;42.650;23.386;2022-09-25T03:08:55;1.43;;;1.43;;
7110;SDS011;3597;42.650;23.386;2022-09-25T03:11:22;1.20;;;1.20;;
7110;SDS011;3597;42.650;23.386;2022-09-25T03:14:09;1.60;;;1.60;;
7110;SDS011;3597;42.650;23.386;2022-09-25T03:16:43;1.30;;;1.30;;
7110;SDS011;3597;42.650;23.386;2022-09-25T03:19:13;1.23;;;1.23;;
7110;SDS011;3597;42.650;23.386;2022-09-25T03:21:39;1.40;;;1.40;;
7110;SDS011;3597;42.650;23.386;2022-09-25T03:24:04;1.43;;;1.43;;
7110;SDS011;3597;42.650;23.386;2022-09-25T03:26:30;1.20;;;1.20;;
7110;SDS011;3597;42.650;23.386;2022-09-25T03:28:55;1.40;;;1.40;;
7110;SDS011;3597;42.650;23.386;2022-09-25T03:31:21;1.43;;;1.43;;
7110;SDS011;3597;42.650;23.386;2022-09-25T03:33:46;1.27;;;1.27;;
7110;SDS011;3597;42.650;23.386;2022-09-25T03:36:16;1.40;;;1.40;;
7110;SDS011;3597;42.650;23.386;2022-09-25T03:38:47;1.30;;;1.30;;
7110;SDS011;3597;42.650;23.386;2022-09-25T03:41:14;1.80;;;1.30;;
7110;SDS011;3597;42.650;23.386;2022-09-25T03:43:43;1.37;;;1.37;;
7110;SDS011;3597;42.650;23.386;2022-09-25T03:46:10;1.30;;;1.30;;
7110;SDS011;3597;42.650;23.386;2022-09-25T03:48:37;1.20;;;1.20;;
7110;SDS011;3597;42.650;23.386;2022-09-25T03:51:03;1.10;;;1.10;;
7110;SDS011;3597;42.650;23.386;2022-09-25T03:53:29;1.53;;;1.53;;
7110;SDS011;3597;42.650;23.386;2022-09-25T03:55:58;1.50;;;1.50;;
7110;SDS011;3597;42.650;23.386;2022-09-25T03:58:24;1.30;;;1.30;;
7110;SDS011;3597;42.650;23.386;2022-09-25T04:00:50;1.40;;;1.40;;
7110;SDS011;3597;42.650;23.386;2022-09-25T04:03:15;1.40;;;1.40;;
7110;SDS011;3597;42.650;23.386;2022-09-25T04:05:41;1.30;;;1.30;;
7110;SDS011;3597;42.650;23.386;2022-09-25T04:08:07;1.30;;;1.30;;
7110;SDS011;3597;42.650;23.386;2022-09-25T04:10:33;1.30;;;1.30;;
7110;SDS011;3597;42.650;23.386;2022-09-25T04:13:03;1.60;;;1.60;;
7110;SDS011;3597;42.650;23.386;2022-09-25T04:15:29;1.20;;;1.20;;
7110;SDS011;3597;42.650;23.386;2022-09-25T04:17:56;1.40;;;1.40;;
7110;SDS011;3597;42.650;23.386;2022-09-25T04:20:22;1.30;;;1.30;;
7110;SDS011;3597;42.650;23.386;2022-09-25T04:22:47;1.17;;;1.17;;
7110;SDS011;3597;42.650;23.386;2022-09-25T04:25:13;1.47;;;1.47;;
7110;SDS011;3597;42.650;23.386;2022-09-25T04:27:38;1.27;;;1.27;;
7110;SDS011;3597;42.650;23.386;2022-09-25T04:30:04;1.60;;;1.60;;
7110;SDS011;3597;42.650;23.386;2022-09-25T04:32:30;1.53;;;1.53;;
7110;SDS011;3597;42.650;23.386;2022-09-25T04:35:14;1.33;;;1.33;;
7110;SDS011;3597;42.650;23.386;2022-09-25T04:37:40;1.80;;;1.80;;
7110;SDS011;3597;42.650;23.386;2022-09-25T04:40:05;1.37;;;1.37;;
7110;SDS011;3597;42.650;23.386;2022-09-25T04:42:31;1.70;;;1.70;;
7110;SDS011;3597;42.650;23.386;2022-09-25T04:44:56;1.43;;;1.43;;
7110;SDS011;3597;42.650;23.386;2022-09-25T04:47:23;1.77;;;1.77;;
7110;SDS011;3597;42.650;23.386;2022-09-25T04:49:50;1.37;;;1.37;;
7110;SDS011;3597;42.650;23.386;2022-09-25T04:52:15;1.50;;;1.50;;
7110;SDS011;3597;42.650;23.386;2022-09-25T04:54:42;5.40;;;5.30;;
7110;SDS011;3597;42.650;23.386;2022-09-25T04:57:08;1.33;;;1.33;;
7110;SDS011;3597;42.650;23.386;2022-09-25T04:59:35;1.33;;;1.33;;
7110;SDS011;3597;42.650;23.386;2022-09-25T05:02:01;1.47;;;1.47;;
7110;SDS011;3597;42.650;23.386;2022-09-25T05:04:26;1.57;;;1.57;;
7110;SDS011;3597;42.650;23.386;2022-09-25T05:06:52;1.67;;;1.57;;
7110;SDS011;3597;42.650;23.386;2022-09-25T05:09:18;1.60;;;1.60;;
7110;SDS011;3597;42.650;23.386;2022-09-25T05:11:44;1.60;;;1.50;;
7110;SDS011;3597;42.650;23.386;2022-09-25T05:14:10;1.67;;;1.67;;
7110;SDS011;3597;42.650;23.386;2022-09-25T05:16:36;1.40;;;1.40;;
7110;SDS011;3597;42.650;23.386;2022-09-25T05:19:01;1.47;;;1.47;;
7110;SDS011;3597;42.650;23.386;2022-09-25T05:21:27;1.80;;;1.80;;
7110;SDS011;3597;42.650;23.386;2022-09-25T05:23:53;1.40;;;1.40;;
7110;SDS011;3597;42.650;23.386;2022-09-25T05:26:19;1.80;;;1.80;;
7110;SDS011;3597;42.650;23.386;2022-09-25T05:28:47;1.77;;;1.77;;
7110;SDS011;3597;42.650;23.386;2022-09-25T05:31:14;1.83;;;1.83;;
7110;SDS011;3597;42.650;23.386;2022-09-25T05:33:40;1.50;;;1.50;;
7110;SDS011;3597;42.650;23.386;2022-09-25T05:36:06;1.47;;;1.47;;
7110;SDS011;3597;42.650;23.386;2022-09-25T05:38:32;1.47;;;1.47;;
7110;SDS011;3597;42.650;23.386;2022-09-25T05:41:02;1.50;;;1.50;;
7110;SDS011;3597;42.650;23.386;2022-09-25T05:43:29;1.50;;;1.50;;
7110;SDS011;3597;42.650;23.386;2022-09-25T05:45:55;1.60;;;1.60;;
7110;SDS011;3597;42.650;23.386;2022-09-25T05:48:21;1.40;;;1.40;;
7110;SDS011;3597;42.650;23.386;2022-09-25T05:50:53;2.13;;;2.13;;
7110;SDS011;3597;42.650;23.386;2022-09-25T05:53:19;1.80;;;1.80;;
7110;SDS011;3597;42.650;23.386;2022-09-25T05:55:51;2.10;;;2.00;;
7110;SDS011;3597;42.650;23.386;2022-09-25T05:58:18;1.97;;;1.90;;
7110;SDS011;3597;42.650;23.386;2022-09-25T06:00:43;2.20;;;2.20;;
7110;SDS011;3597;42.650;23.386;2022-09-25T06:03:09;2.30;;;2.30;;
7110;SDS011;3597;42.650;23.386;2022-09-25T06:05:35;3.00;;;2.90;;
7110;SDS011;3597;42.650;23.386;2022-09-25T06:08:01;2.97;;;2.87;;
7110;SDS011;3597;42.650;23.386;2022-09-25T06:10:26;2.73;;;2.67;;
7110;SDS011;3597;42.650;23.386;2022-09-25T06:12:56;2.63;;;2.63;;
7110;SDS011;3597;42.650;23.386;2022-09-25T06:15:23;2.97;;;2.93;;
7110;SDS011;3597;42.650;23.386;2022-09-25T06:17:50;2.93;;;2.87;;
7110;SDS011;3597;42.650;23.386;2022-09-25T06:20:15;3.10;;;3.00;;
7110;SDS011;3597;42.650;23.386;2022-09-25T06:22:41;2.90;;;2.90;;
7110;SDS011;3597;42.650;23.386;2022-09-25T06:25:08;2.70;;;2.60;;
7110;SDS011;3597;42.650;23.386;2022-09-25T06:27:35;2.90;;;2.80;;
7110;SDS011;3597;42.650;23.386;2022-09-25T06:30:00;2.67;;;2.60;;
7110;SDS011;3597;42.650;23.386;2022-09-25T06:32:26;2.10;;;2.10;;
7110;SDS011;3597;42.650;23.386;2022-09-25T06:34:51;2.70;;;2.60;;
7110;SDS011;3597;42.650;23.386;2022-09-25T06:37:17;2.93;;;2.83;;
7110;SDS011;3597;42.650;23.386;2022-09-25T06:39:42;2.80;;;2.80;;
7110;SDS011;3597;42.650;23.386;2022-09-25T06:42:07;2.80;;;2.80;;
7110;SDS011;3597;42.650;23.386;2022-09-25T06:44:33;2.80;;;2.80;;
7110;SDS011;3597;42.650;23.386;2022-09-25T06:46:58;2.53;;;2.53;;
7110;SDS011;3597;42.650;23.386;2022-09-25T06:49:25;2.40;;;2.40;;
7110;SDS011;3597;42.650;23.386;2022-09-25T06:51:51;2.20;;;2.20;;
7110;SDS011;3597;42.650;23.386;2022-09-25T06:54:16;2.57;;;2.47;;
7110;SDS011;3597;42.650;23.386;2022-09-25T06:56:42;2.67;;;2.67;;
7110;SDS011;3597;42.650;23.386;2022-09-25T06:59:07;2.67;;;2.67;;
7110;SDS011;3597;42.650;23.386;2022-09-25T07:01:33;2.73;;;2.63;;
7110;SDS011;3597;42.650;23.386;2022-09-25T07:03:59;2.30;;;2.30;;
7110;SDS011;3597;42.650;23.386;2022-09-25T07:06:26;2.33;;;2.33;;
7110;SDS011;3597;42.650;23.386;2022-09-25T07:08:55;3.00;;;2.90;;
7110;SDS011;3597;42.650;23.386;2022-09-25T07:11:22;2.50;;;2.47;;
7110;SDS011;3597;42.650;23.386;2022-09-25T07:13:48;2.50;;;2.50;;
7110;SDS011;3597;42.650;23.386;2022-09-25T07:16:17;2.70;;;2.60;;
7110;SDS011;3597;42.650;23.386;2022-09-25T07:18:43;2.50;;;2.50;;
7110;SDS011;3597;42.650;23.386;2022-09-25T07:21:11;2.63;;;2.63;;
7110;SDS011;3597;42.650;23.386;2022-09-25T07:23:38;2.30;;;2.30;;
7110;SDS011;3597;42.650;23.386;2022-09-25T07:26:13;2.50;;;2.50;;
7110;SDS011;3597;42.650;23.386;2022-09-25T07:28:53;2.50;;;2.50;;
7110;SDS011;3597;42.650;23.386;2022-09-25T07:31:21;2.60;;;2.60;;
7110;SDS011;3597;42.650;23.386;2022-09-25T07:33:49;2.73;;;2.73;;
7110;SDS011;3597;42.650;23.386;2022-09-25T07:36:15;2.67;;;2.67;;
7110;SDS011;3597;42.650;23.386;2022-09-25T07:38:41;2.73;;;2.73;;
7110;SDS011;3597;42.650;23.386;2022-09-25T07:41:09;2.80;;;2.80;;
7110;SDS011;3597;42.650;23.386;2022-09-25T07:43:37;2.90;;;2.90;;
7110;SDS011;3597;42.650;23.386;2022-09-25T07:46:03;2.90;;;2.70;;
7110;SDS011;3597;42.650;23.386;2022-09-25T07:48:29;2.73;;;2.67;;
7110;SDS011;3597;42.650;23.386;2022-09-25T07:51:06;2.63;;;2.63;;
7110;SDS011;3597;42.650;23.386;2022-09-25T07:53:34;2.50;;;2.50;;
7110;SDS011;3597;42.650;23.386;2022-09-25T07:56:00;2.40;;;2.40;;
7110;SDS011;3597;42.650;23.386;2022-09-25T07:58:26;2.50;;;2.50;;
7110;SDS011;3597;42.650;23.386;2022-09-25T08:00:53;2.80;;;2.80;;
7110;SDS011;3597;42.650;23.386;2022-09-25T08:03:19;2.40;;;2.40;;
7110;SDS011;3597;42.650;23.386;2022-09-25T08:05:45;2.23;;;2.23;;
7110;SDS011;3597;42.650;23.386;2022-09-25T08:08:11;2.13;;;2.13;;
7110;SDS011;3597;42.650;23.386;2022-09-25T08:10:36;2.50;;;2.50;;
7110;SDS011;3597;42.650;23.386;2022-09-25T08:13:02;2.40;;;2.40;;
7110;SDS011;3597;42.650;23.386;2022-09-25T08:15:28;2.20;;;2.10;;
7110;SDS011;3597;42.650;23.386;2022-09-25T08:17:53;2.17;;;2.17;;
7110;SDS011;3597;42.650;23.386;2022-09-25T08:20:19;2.27;;;2.27;;
7110;SDS011;3597;42.650;23.386;2022-09-25T08:22:44;2.30;;;2.30;;
7110;SDS011;3597;42.650;23.386;2022-09-25T08:25:11;2.50;;;2.50;;
7110;SDS011;3597;42.650;23.386;2022-09-25T08:27:37;2.30;;;2.30;;
7110;SDS011;3597;42.650;23.386;2022-09-25T08:30:05;2.20;;;2.20;;
7110;SDS011;3597;42.650;23.386;2022-09-25T08:32:32;2.30;;;2.30;;
7110;SDS011;3597;42.650;23.386;2022-09-25T08:34:58;2.50;;;2.50;;
7110;SDS011;3597;42.650;23.386;2022-09-25T08:37:23;2.30;;;2.30;;
7110;SDS011;3597;42.650;23.386;2022-09-25T08:39:48;2.30;;;2.30;;
7110;SDS011;3597;42.650;23.386;2022-09-25T08:42:18;2.67;;;2.47;;
7110;SDS011;3597;42.650;23.386;2022-09-25T08:44:54;2.33;;;2.23;;
7110;SDS011;3597;42.650;23.386;2022-09-25T08:47:40;2.00;;;2.00;;
7110;SDS011;3597;42.650;23.386;2022-09-25T08:50:24;2.07;;;2.07;;
7110;SDS011;3597;42.650;23.386;2022-09-25T08:52:51;1.97;;;1.97;;
7110;SDS011;3597;42.650;23.386;2022-09-25T08:55:27;1.80;;;1.80;;
7110;SDS011;3597;42.650;23.386;2022-09-25T08:58:19;2.00;;;2.00;;
7110;SDS011;3597;42.650;23.386;2022-09-25T09:00:50;1.80;;;1.80;;
7110;SDS011;3597;42.650;23.386;2022-09-25T09:03:18;2.00;;;2.00;;
7110;SDS011;3597;42.650;23.386;2022-09-25T09:05:44;2.20;;;2.20;;
7110;SDS011;3597;42.650;23.386;2022-09-25T09:08:12;2.17;;;2.17;;
7110;SDS011;3597;42.650;23.386;2022-09-25T09:10:47;2.67;;;2.67;;
7110;SDS011;3597;42.650;23.386;2022-09-25T09:16:04;3.57;;;3.47;;
7110;SDS011;3597;42.650;23.386;2022-09-25T09:18:39;3.73;;;3.63;;
7110;SDS011;3597;42.650;23.386;2022-09-25T09:24:06;3.63;;;3.63;;
7110;SDS011;3597;42.650;23.386;2022-09-25T09:37:47;2.67;;;2.57;;
7110;SDS011;3597;42.650;23.386;2022-09-25T09:40:15;3.10;;;3.00;;
7110;SDS011;3597;42.650;23.386;2022-09-25T09:50:31;2.97;;;2.97;;
7110;SDS011;3597;42.650;23.386;2022-09-25T09:53:02;3.80;;;3.63;;
7110;SDS011;3597;42.650;23.386;2022-09-25T09:58:03;3.30;;;3.30;;
7110;SDS011;3597;42.650;23.386;2022-09-25T10:00:32;3.53;;;3.53;;
7110;SDS011;3597;42.650;23.386;2022-09-25T10:03:00;3.20;;;3.20;;
7110;SDS011;3597;42.650;23.386;2022-09-25T10:05:31;3.37;;;3.27;;
7110;SDS011;3597;42.650;23.386;2022-09-25T10:07:59;3.20;;;3.20;;
7110;SDS011;3597;42.650;23.386;2022-09-25T10:10:33;3.13;;;3.13;;
7110;SDS011;3597;42.650;23.386;2022-09-25T10:13:01;3.17;;;3.17;;
7110;SDS011;3597;42.650;23.386;2022-09-25T10:18:00;3.13;;;3.13;;
7110;SDS011;3597;42.650;23.386;2022-09-25T10:20:46;3.20;;;3.20;;
7110;SDS011;3597;42.650;23.386;2022-09-25T10:23:26;3.40;;;3.40;;
7110;SDS011;3597;42.650;23.386;2022-09-25T10:26:34;3.30;;;3.27;;
7110;SDS011;3597;42.650;23.386;2022-09-25T10:29:02;2.83;;;2.83;;
7110;SDS011;3597;42.650;23.386;2022-09-25T10:31:32;3.50;;;3.50;;
7110;SDS011;3597;42.650;23.386;2022-09-25T10:34:33;3.93;;;3.93;;
7110;SDS011;3597;42.650;23.386;2022-09-25T10:36:53;3.90;;;3.80;;
7110;SDS011;3597;42.650;23.386;2022-09-25T10:39:36;3.60;;;3.60;;
7110;SDS011;3597;42.650;23.386;2022-09-25T10:42:07;3.90;;;3.90;;
7110;SDS011;3597;42.650;23.386;2022-09-25T10:47:46;3.00;;;3.00;;
7110;SDS011;3597;42.650;23.386;2022-09-25T10:50:32;3.03;;;3.03;;
7110;SDS011;3597;42.650;23.386;2022-09-25T10:52:58;2.53;;;2.53;;
7110;SDS011;3597;42.650;23.386;2022-09-25T10:57:53;2.30;;;2.30;;
7110;SDS011;3597;42.650;23.386;2022-09-25T11:00:24;2.70;;;2.70;;
7110;SDS011;3597;42.650;23.386;2022-09-25T11:02:51;2.13;;;2.13;;
7110;SDS011;3597;42.650;23.386;2022-09-25T11:05:20;2.33;;;2.33;;
7110;SDS011;3597;42.650;23.386;2022-09-25T11:07:58;2.23;;;2.23;;
7110;SDS011;3597;42.650;23.386;2022-09-25T11:10:35;2.20;;;2.20;;
7110;SDS011;3597;42.650;23.386;2022-09-25T11:13:07;1.93;;;1.93;;
7110;SDS011;3597;42.650;23.386;2022-09-25T11:15:34;2.00;;;2.00;;
7110;SDS011;3597;42.650;23.386;2022-09-25T11:18:01;2.27;;;2.27;;
7110;SDS011;3597;42.650;23.386;2022-09-25T11:20:28;2.20;;;2.20;;
7110;SDS011;3597;42.650;23.386;2022-09-25T11:25:31;1.90;;;1.90;;
7110;SDS011;3597;42.650;23.386;2022-09-25T11:28:02;2.03;;;2.03;;
7110;SDS011;3597;42.650;23.386;2022-09-25T11:30:39;1.80;;;1.80;;
7110;SDS011;3597;42.650;23.386;2022-09-25T11:33:27;2.00;;;2.00;;
7110;SDS011;3597;42.650;23.386;2022-09-25T11:35:59;1.90;;;1.90;;
7110;SDS011;3597;42.650;23.386;2022-09-25T11:41:29;2.10;;;2.10;;
7110;SDS011;3597;42.650;23.386;2022-09-25T11:47:05;2.20;;;2.17;;
7110;SDS011;3597;42.650;23.386;2022-09-25T11:49:46;1.90;;;1.90;;
7110;SDS011;3597;42.650;23.386;2022-09-25T12:08:24;2.50;;;2.50;;
7110;SDS011;3597;42.650;23.386;2022-09-25T12:19:08;3.10;;;3.10;;
7110;SDS011;3597;42.650;23.386;2022-09-25T12:24:51;3.05;;;3.05;;
7110;SDS011;3597;42.650;23.386;2022-09-25T12:27:45;2.60;;;2.60;;
7110;SDS011;3597;42.650;23.386;2022-09-25T12:30:52;2.60;;;2.60;;
7110;SDS011;3597;42.650;23.386;2022-09-25T12:36:20;2.13;;;2.13;;
7110;SDS011;3597;42.650;23.386;2022-09-25T12:38:50;2.65;;;2.65;;
7110;SDS011;3597;42.650;23.386;2022-09-25T12:44:37;2.97;;;2.97;;
7110;SDS011;3597;42.650;23.386;2022-09-25T12:51:54;3.13;;;3.13;;
7110;SDS011;3597;42.650;23.386;2022-09-25T12:54:45;2.65;;;2.65;;
7110;SDS011;3597;42.650;23.386;2022-09-25T12:57:20;2.35;;;2.35;;
7110;SDS011;3597;42.650;23.386;2022-09-25T12:59:50;2.30;;;2.30;;
7110;SDS011;3597;42.650;23.386;2022-09-25T13:11:04;2.40;;;2.40;;
7110;SDS011;3597;42.650;23.386;2022-09-25T13:13:35;2.13;;;2.13;;
7110;SDS011;3597;42.650;23.386;2022-09-25T13:16:04;2.45;;;2.38;;
7110;SDS011;3597;42.650;23.386;2022-09-25T13:18:30;2.42;;;2.42;;
7110;SDS011;3597;42.650;23.386;2022-09-25T13:23:55;1.90;;;1.90;;
7110;SDS011;3597;42.650;23.386;2022-09-25T13:26:21;2.05;;;1.95;;
7110;SDS011;3597;42.650;23.386;2022-09-25T13:29:14;1.88;;;1.88;;
7110;SDS011;3597;42.650;23.386;2022-09-25T13:32:00;2.00;;;1.90;;
7110;SDS011;3597;42.650;23.386;2022-09-25T13:34:26;2.10;;;2.10;;
7110;SDS011;3597;42.650;23.386;2022-09-25T13:36:55;2.20;;;2.20;;
7110;SDS011;3597;42.650;23.386;2022-09-25T13:42:30;2.20;;;2.20;;
7110;SDS011;3597;42.650;23.386;2022-09-25T13:45:25;1.83;;;1.83;;
7110;SDS011;3597;42.650;23.386;2022-09-25T13:50:45;2.00;;;2.00;;
7110;SDS011;3597;42.650;23.386;2022-09-25T13:58:18;2.47;;;2.47;;
7110;SDS011;3597;42.650;23.386;2022-09-25T14:06:12;1.67;;;1.67;;
7110;SDS011;3597;42.650;23.386;2022-09-25T14:08:58;1.90;;;1.90;;
7110;SDS011;3597;42.650;23.386;2022-09-25T14:11:30;1.63;;;1.63;;
7110;SDS011;3597;42.650;23.386;2022-09-25T14:13:57;1.83;;;1.83;;
7110;SDS011;3597;42.650;23.386;2022-09-25T14:16:58;2.20;;;2.20;;
7110;SDS011;3597;42.650;23.386;2022-09-25T14:19:19;2.00;;;2.00;;
7110;SDS011;3597;42.650;23.386;2022-09-25T14:21:48;1.77;;;1.77;;
7110;SDS011;3597;42.650;23.386;2022-09-25T14:24:21;1.90;;;1.90;;
7110;SDS011;3597;42.650;23.386;2022-09-25T14:26:53;2.20;;;2.13;;
7110;SDS011;3597;42.650;23.386;2022-09-25T14:29:23;2.03;;;2.03;;
7110;SDS011;3597;42.650;23.386;2022-09-25T14:48:04;1.93;;;1.93;;
7110;SDS011;3597;42.650;23.386;2022-09-25T14:50:35;2.20;;;2.20;;
7110;SDS011;3597;42.650;23.386;2022-09-25T14:53:06;2.10;;;2.10;;
7110;SDS011;3597;42.650;23.386;2022-09-25T14:55:38;2.23;;;2.23;;
7110;SDS011;3597;42.650;23.386;2022-09-25T14:58:11;2.30;;;2.30;;
7110;SDS011;3597;42.650;23.386;2022-09-25T15:00:50;2.10;;;2.10;;
7110;SDS011;3597;42.650;23.386;2022-09-25T15:03:18;2.23;;;2.23;;
7110;SDS011;3597;42.650;23.386;2022-09-25T15:05:46;2.40;;;2.40;;
7110;SDS011;3597;42.650;23.386;2022-09-25T15:08:18;2.10;;;2.10;;
7110;SDS011;3597;42.650;23.386;2022-09-25T15:11:37;2.10;;;2.10;;
7110;SDS011;3597;42.650;23.386;2022-09-25T15:13:51;1.70;;;1.70;;
7110;SDS011;3597;42.650;23.386;2022-09-25T15:19:01;2.03;;;2.03;;
7110;SDS011;3597;42.650;23.386;2022-09-25T15:23:53;1.70;;;1.70;;
7110;SDS011;3597;42.650;23.386;2022-09-25T15:26:20;2.10;;;2.10;;
7110;SDS011;3597;42.650;23.386;2022-09-25T15:28:46;2.47;;;2.30;;
7110;SDS011;3597;42.650;23.386;2022-09-25T15:31:12;2.17;;;2.17;;
7110;SDS011;3597;42.650;23.386;2022-09-25T15:33:38;1.90;;;1.90;;
7110;SDS011;3597;42.650;23.386;2022-09-25T15:36:14;2.00;;;2.00;;
7110;SDS011;3597;42.650;23.386;2022-09-25T15:38:40;2.30;;;2.30;;
7110;SDS011;3597;42.650;23.386;2022-09-25T15:41:06;2.07;;;2.07;;
7110;SDS011;3597;42.650;23.386;2022-09-25T15:43:33;2.40;;;2.40;;
7110;SDS011;3597;42.650;23.386;2022-09-25T15:48:30;2.80;;;2.80;;
7110;SDS011;3597;42.650;23.386;2022-09-25T15:51:00;2.33;;;2.33;;
7110;SDS011;3597;42.650;23.386;2022-09-25T15:53:29;2.70;;;2.63;;
7110;SDS011;3597;42.650;23.386;2022-09-25T15:56:05;2.80;;;2.80;;
7110;SDS011;3597;42.650;23.386;2022-09-25T15:58:51;2.67;;;2.67;;
7110;SDS011;3597;42.650;23.386;2022-09-25T16:01:22;3.00;;;3.00;;
7110;SDS011;3597;42.650;23.386;2022-09-25T16:04:09;2.77;;;2.77;;
7110;SDS011;3597;42.650;23.386;2022-09-25T16:06:57;3.20;;;3.20;;
7110;SDS011;3597;42.650;23.386;2022-09-25T16:11:51;3.03;;;3.03;;
7110;SDS011;3597;42.650;23.386;2022-09-25T16:16:54;3.50;;;3.50;;
7110;SDS011;3597;42.650;23.386;2022-09-25T16:21:46;3.90;;;3.80;;
7110;SDS011;3597;42.650;23.386;2022-09-25T16:24:22;4.07;;;3.97;;
7110;SDS011;3597;42.650;23.386;2022-09-25T16:26:55;3.90;;;3.80;;
7110;SDS011;3597;42.650;23.386;2022-09-25T16:29:23;3.50;;;3.50;;
7110;SDS011;3597;42.650;23.386;2022-09-25T16:31:50;4.00;;;3.90;;
7110;SDS011;3597;42.650;23.386;2022-09-25T16:34:34;4.50;;;4.40;;
7110;SDS011;3597;42.650;23.386;2022-09-25T16:37:02;3.87;;;3.87;;
7110;SDS011;3597;42.650;23.386;2022-09-25T16:39:30;4.10;;;4.10;;
7110;SDS011;3597;42.650;23.386;2022-09-25T16:41:55;4.03;;;4.03;;
7110;SDS011;3597;42.650;23.386;2022-09-25T16:49:44;4.40;;;4.20;;
7110;SDS011;3597;42.650;23.386;2022-09-25T16:52:17;4.00;;;3.90;;
7110;SDS011;3597;42.650;23.386;2022-09-25T16:54:53;3.87;;;3.67;;
7110;SDS011;3597;42.650;23.386;2022-09-25T16:57:24;3.80;;;3.80;;
7110;SDS011;3597;42.650;23.386;2022-09-25T16:59:51;3.80;;;3.80;;
7110;SDS011;3597;42.650;23.386;2022-09-25T17:02:22;3.80;;;3.57;;
7110;SDS011;3597;42.650;23.386;2022-09-25T17:05:00;3.50;;;3.50;;
7110;SDS011;3597;42.650;23.386;2022-09-25T17:07:27;3.57;;;3.57;;
7110;SDS011;3597;42.650;23.386;2022-09-25T17:09:53;3.47;;;3.33;;
7110;SDS011;3597;42.650;23.386;2022-09-25T17:12:19;3.43;;;3.33;;
7110;SDS011;3597;42.650;23.386;2022-09-25T17:14:46;3.67;;;3.57;;
7110;SDS011;3597;42.650;23.386;2022-09-25T17:17:13;3.50;;;3.40;;
7110;SDS011;3597;42.650;23.386;2022-09-25T17:19:39;2.80;;;2.80;;
7110;SDS011;3597;42.650;23.386;2022-09-25T17:22:04;4.47;;;4.30;;
7110;SDS011;3597;42.650;23.386;2022-09-25T17:24:30;2.97;;;2.97;;
7110;SDS011;3597;42.650;23.386;2022-09-25T17:26:55;2.57;;;2.57;;
7110;SDS011;3597;42.650;23.386;2022-09-25T17:29:21;2.40;;;2.30;;
7110;SDS011;3597;42.650;23.386;2022-09-25T17:31:46;2.47;;;2.47;;
7110;SDS011;3597;42.650;23.386;2022-09-25T17:36:45;2.10;;;2.10;;
7110;SDS011;3597;42.650;23.386;2022-09-25T17:39:10;2.27;;;2.17;;
7110;SDS011;3597;42.650;23.386;2022-09-25T17:41:36;1.63;;;1.63;;
7110;SDS011;3597;42.650;23.386;2022-09-25T17:44:02;1.97;;;1.97;;
7110;SDS011;3597;42.650;23.386;2022-09-25T17:46:28;2.47;;;2.27;;
7110;SDS011;3597;42.650;23.386;2022-09-25T17:48:57;2.10;;;2.10;;
7110;SDS011;3597;42.650;23.386;2022-09-25T17:51:24;2.30;;;2.30;;
7110;SDS011;3597;42.650;23.386;2022-09-25T17:53:51;2.00;;;2.00;;
7110;SDS011;3597;42.650;23.386;2022-09-25T17:56:17;2.13;;;2.13;;
7110;SDS011;3597;42.650;23.386;2022-09-25T17:58:43;2.20;;;2.20;;
7110;SDS011;3597;42.650;23.386;2022-09-25T18:01:28;2.20;;;2.20;;
7110;SDS011;3597;42.650;23.386;2022-09-25T18:03:58;2.43;;;2.40;;
7110;SDS011;3597;42.650;23.386;2022-09-25T18:06:25;2.50;;;2.40;;
7110;SDS011;3597;42.650;23.386;2022-09-25T18:08:52;4.60;;;2.40;;
7110;SDS011;3597;42.650;23.386;2022-09-25T18:11:18;2.27;;;2.27;;
7110;SDS011;3597;42.650;23.386;2022-09-25T18:13:44;2.33;;;2.23;;
7110;SDS011;3597;42.650;23.386;2022-09-25T18:16:18;2.23;;;2.23;;
7110;SDS011;3597;42.650;23.386;2022-09-25T18:18:46;2.40;;;2.40;;
7110;SDS011;3597;42.650;23.386;2022-09-25T18:21:30;2.03;;;2.00;;
7110;SDS011;3597;42.650;23.386;2022-09-25T18:24:14;1.93;;;1.93;;
7110;SDS011;3597;42.650;23.386;2022-09-25T18:26:40;2.00;;;2.00;;
7110;SDS011;3597;42.650;23.386;2022-09-25T18:29:06;2.30;;;2.20;;